Time;durP1;ratioP1;P1;durP2;ratioP2;P2;SDS_P1;SDS_P2;PMS_P1;PMS_P2;Temp;Humidity;BMP_temperature;BMP_pressure;BME280_temperature;BME280_humidity;BME280_pressure;Samples;Min_cycle;Max_cycle;Signal;HPM_P1;HPM_P2
2022/08/20 00:00:06;;;;;;;7.55;4.60;;;;;;;25.46;nan;-24522.66;4938810;29;20198;-80
2022/08/20 00:02:47;;;;;;;7.53;4.93;;;;;;;25.55;nan;-24525.13;4936929;29;20640;-80
2022/08/20 00:05:14;;;;;;;9.18;4.85;;;;;;;25.51;nan;-24524.03;4939399;29;20186;-80
2022/08/20 00:07:40;;;;;;;8.13;4.70;;;;;;;25.45;nan;-24522.38;4938480;29;20713;-79
2022/08/20 00:10:07;;;;;;;10.80;5.40;;;;;;;25.37;nan;-24520.31;4938671;29;20242;-78
2022/08/20 00:12:35;;;;;;;7.38;4.90;;;;;;;25.20;nan;-24515.63;4937795;29;20669;-78
2022/08/20 00:15:01;;;;;;;8.57;4.82;;;;;;;24.87;nan;-24506.56;4938761;29;20709;-78
2022/08/20 00:17:31;;;;;;;7.03;4.65;;;;;;;25.26;nan;-24517.16;4937844;29;20205;-78
2022/08/20 00:19:57;;;;;;;7.60;4.75;;;;;;;25.21;nan;-24515.78;4938741;29;20205;-79
2022/08/20 00:22:23;;;;;;;8.70;4.97;;;;;;;24.97;nan;-24509.31;4938009;29;20167;-80
2022/08/20 00:24:48;;;;;;;8.38;5.10;;;;;;;25.37;nan;-24520.19;4938840;29;20545;-79
2022/08/20 00:27:13;;;;;;;6.32;4.65;;;;;;;25.26;nan;-24517.16;4938710;29;20179;-78
2022/08/20 00:29:39;;;;;;;7.07;4.88;;;;;;;24.98;nan;-24509.59;4938449;29;20178;-78
2022/08/20 00:32:04;;;;;;;7.55;4.53;;;;;;;25.04;nan;-24511.25;4936319;29;20307;-78
2022/08/20 00:34:30;;;;;;;8.70;5.03;;;;;;;24.68;nan;-24501.47;4937651;29;20639;-78
2022/08/20 00:36:55;;;;;;;8.00;4.78;;;;;;;24.94;nan;-24508.47;4936487;29;20581;-78
2022/08/20 00:39:21;;;;;;;10.55;5.68;;;;;;;24.62;nan;-24499.81;4936529;29;20182;-79
2022/08/20 00:41:47;;;;;;;8.25;5.68;;;;;;;24.89;nan;-24507.25;4937316;29;20397;-77
2022/08/20 00:44:18;;;;;;;8.88;4.97;;;;;;;24.82;nan;-24505.19;4937550;29;20182;-79
2022/08/20 00:46:44;;;;;;;7.78;5.05;;;;;;;24.68;nan;-24501.31;4937194;29;20532;-78
2022/08/20 00:49:21;;;;;;;8.05;5.13;;;;;;;24.44;nan;-24494.84;4936664;29;20669;-78
2022/08/20 00:51:52;;;;;;;9.00;5.78;;;;;;;24.64;nan;-24500.34;4937791;29;20189;-79
2022/08/20 00:54:37;;;;;;;6.60;4.95;;;;;;;24.25;nan;-24489.75;4937800;29;20645;-77
2022/08/20 00:57:22;;;;;;;7.97;4.95;;;;;;;24.53;nan;-24497.31;4938564;29;20630;-78
2022/08/20 00:59:50;;;;;;;8.80;5.15;;;;;;;24.50;nan;-24496.63;4937422;29;20175;-79
2022/08/20 01:02:17;;;;;;;8.48;5.10;;;;;;;24.52;nan;-24497.19;4936249;29;20182;-79
2022/08/20 01:04:55;;;;;;;8.40;4.72;;;;;;;24.44;nan;-24494.97;4937909;29;20243;-78
2022/08/20 01:07:31;;;;;;;10.20;4.88;;;;;;;24.08;nan;-24485.06;4938021;29;20171;-79
2022/08/20 01:09:57;;;;;;;8.02;4.68;;;;;;;24.05;nan;-24484.34;4937090;29;20260;-78
2022/08/20 01:12:24;;;;;;;8.00;5.10;;;;;;;24.27;nan;-24490.16;4936352;29;20719;-77
2022/08/20 01:14:49;;;;;;;8.60;5.03;;;;;;;24.16;nan;-24487.25;4936079;29;20642;-78
2022/08/20 01:17:22;;;;;;;9.77;5.22;;;;;;;23.90;nan;-24480.09;4937410;29;20238;-78
2022/08/20 01:19:56;;;;;;;7.78;4.80;;;;;;;23.72;nan;-24475.38;4937594;29;20254;-78
2022/08/20 01:25:39;;;;;;;9.07;5.60;;;;;;;24.09;nan;-24485.31;4937785;29;20242;-79
2022/08/20 01:28:05;;;;;;;10.23;5.63;;;;;;;23.76;nan;-24476.34;4937443;29;20242;-78
2022/08/20 01:30:32;;;;;;;10.25;5.32;;;;;;;23.95;nan;-24481.47;4936897;29;20614;-77
2022/08/20 01:32:57;;;;;;;11.43;5.28;;;;;;;23.87;nan;-24479.25;4936746;29;20241;-78
2022/08/20 01:35:23;;;;;;;8.15;5.35;;;;;;;23.73;nan;-24475.66;4937336;29;20167;-78
2022/08/20 01:37:49;;;;;;;10.82;5.80;;;;;;;23.33;nan;-24464.63;4937348;29;20256;-79
2022/08/20 01:40:22;;;;;;;10.02;5.13;;;;;;;23.62;nan;-24472.50;4951922;29;20582;-79
2022/08/20 01:42:49;;;;;;;8.90;5.50;;;;;;;23.69;nan;-24474.56;4937095;29;20195;-79
2022/08/20 01:45:14;;;;;;;9.52;5.50;;;;;;;23.46;nan;-24468.06;4937488;29;20182;-78
2022/08/20 01:47:40;;;;;;;9.73;5.68;;;;;;;23.50;nan;-24469.31;4935260;29;20183;-78
2022/08/20 01:50:22;;;;;;;11.18;6.10;;;;;;;23.47;nan;-24468.34;4937044;29;20642;-78
2022/08/20 01:53:00;;;;;;;10.90;6.15;;;;;;;23.27;nan;-24463.09;4936938;29;20209;-79
2022/08/20 01:55:26;;;;;;;10.18;5.72;;;;;;;23.28;nan;-24463.25;4937074;29;20163;-79
2022/08/20 01:57:52;;;;;;;10.20;6.13;;;;;;;23.44;nan;-24467.53;4937036;29;20310;-78
2022/08/20 02:00:19;;;;;;;10.70;6.10;;;;;;;22.97;nan;-24454.66;4936409;29;20226;-79
2022/08/20 02:02:44;;;;;;;8.60;5.05;;;;;;;23.22;nan;-24461.56;4936817;29;20190;-78
2022/08/20 02:05:10;;;;;;;11.07;5.45;;;;;;;23.10;nan;-24458.25;4936524;29;20171;-78
2022/08/20 02:07:36;;;;;;;10.75;5.93;;;;;;;23.09;nan;-24458.13;4935469;29;20218;-78
2022/08/20 02:10:05;;;;;;;8.05;5.20;;;;;;;22.43;nan;-24440.00;4935310;29;20182;-78
2022/08/20 02:12:31;;;;;;;10.05;5.82;;;;;;;22.88;nan;-24452.31;4936171;29;20573;-79
2022/08/20 02:14:56;;;;;;;10.00;5.72;;;;;;;22.78;nan;-24449.56;4936011;29;20166;-79
2022/08/20 02:17:24;;;;;;;13.30;6.22;;;;;;;22.78;nan;-24449.56;4934578;29;20174;-77
2022/08/20 02:20:00;;;;;;;11.13;5.90;;;;;;;22.53;nan;-24442.78;4936022;29;20270;-78
2022/08/20 02:22:54;;;;;;;8.90;5.68;;;;;;;22.89;nan;-24452.72;4936081;29;20155;-81
2022/08/20 02:25:23;;;;;;;10.07;5.88;;;;;;;22.82;nan;-24450.81;4936327;29;20206;-78
2022/08/20 02:27:50;;;;;;;10.45;5.60;;;;;;;22.73;nan;-24448.31;4936106;29;20223;-78
2022/08/20 02:30:23;;;;;;;11.63;6.10;;;;;;;22.29;nan;-24436.28;4935024;29;20185;-78
2022/08/20 02:32:49;;;;;;;15.13;7.53;;;;;;;22.59;nan;-24444.31;4936267;29;20179;-77
2022/08/20 02:35:14;;;;;;;13.63;6.10;;;;;;;22.07;nan;-24430.19;4936000;29;20186;-79
2022/08/20 02:37:42;;;;;;;8.73;5.85;;;;;;;22.37;nan;-24438.50;4936162;29;20538;-79
2022/08/20 02:40:11;;;;;;;10.23;6.00;;;;;;;22.46;nan;-24440.97;4936507;29;20250;-78
2022/08/20 02:42:37;;;;;;;11.38;5.57;;;;;;;22.49;nan;-24441.66;4936681;29;20206;-78
2022/08/20 02:45:05;;;;;;;9.18;5.28;;;;;;;22.52;nan;-24442.50;4935817;29;20642;-78
2022/08/20 02:47:31;;;;;;;9.80;5.25;;;;;;;22.44;nan;-24440.44;4935375;29;20246;-78
2022/08/20 02:49:58;;;;;;;8.65;5.68;;;;;;;22.25;nan;-24435.03;4935339;29;20607;-76
2022/08/20 02:52:24;;;;;;;12.00;5.70;;;;;;;22.34;nan;-24437.53;4934187;29;20190;-77
2022/08/20 02:54:51;;;;;;;10.07;6.20;;;;;;;22.41;nan;-24439.47;4935984;29;20202;-77
2022/08/20 02:57:21;;;;;;;11.32;6.50;;;;;;;22.05;nan;-24429.63;4935731;29;20183;-77
2022/08/20 02:59:47;;;;;;;9.70;5.57;;;;;;;22.08;nan;-24430.31;4950482;29;20186;-77
2022/08/20 03:02:14;;;;;;;11.52;5.75;;;;;;;22.18;nan;-24433.09;4935377;29;20163;-78
2022/08/20 03:04:40;;;;;;;10.40;5.65;;;;;;;21.99;nan;-24428.13;4933972;29;20537;-77
2022/08/20 03:07:06;;;;;;;10.57;5.50;;;;;;;22.23;nan;-24434.63;4934352;29;20632;-77
2022/08/20 03:09:32;;;;;;;9.43;5.63;;;;;;;22.06;nan;-24429.78;4934675;29;20186;-77
2022/08/20 03:11:58;;;;;;;12.40;5.88;;;;;;;22.31;nan;-24436.84;4934625;29;20183;-78
2022/08/20 03:14:23;;;;;;;11.73;5.30;;;;;;;22.19;nan;-24433.38;4934468;29;20628;-78
2022/08/20 03:16:48;;;;;;;10.10;5.85;;;;;;;22.30;nan;-24436.41;4935970;29;20702;-78
2022/08/20 03:19:14;;;;;;;9.48;5.60;;;;;;;22.13;nan;-24431.84;4934646;29;20182;-78
2022/08/20 03:21:40;;;;;;;9.85;5.60;;;;;;;22.23;nan;-24434.47;4935870;29;20229;-77
2022/08/20 03:24:07;;;;;;;8.80;5.82;;;;;;;21.97;nan;-24427.56;4935077;29;20625;-78
2022/08/20 03:26:32;;;;;;;14.63;6.10;;;;;;;21.90;nan;-24425.63;4935413;29;20167;-77
2022/08/20 03:28:58;;;;;;;16.00;6.40;;;;;;;22.27;nan;-24435.72;4935275;29;20185;-77
2022/08/20 03:31:23;;;;;;;10.27;5.75;;;;;;;22.05;nan;-24429.50;4934097;29;20241;-77
2022/08/20 03:33:49;;;;;;;9.18;5.47;;;;;;;22.19;nan;-24433.50;4936843;29;20178;-78
2022/08/20 03:36:14;;;;;;;10.77;5.65;;;;;;;22.42;nan;-24439.88;4939372;29;20178;-79
2022/08/20 03:38:40;;;;;;;11.70;6.00;;;;;;;22.30;nan;-24436.41;4939277;29;20221;-77
2022/08/20 03:41:05;;;;;;;9.15;6.03;;;;;;;22.24;nan;-24434.75;4939671;29;20190;-78
2022/08/20 03:43:31;;;;;;;10.35;5.63;;;;;;;22.43;nan;-24440.16;4939391;29;20206;-77
2022/08/20 03:45:57;;;;;;;11.60;5.78;;;;;;;22.52;nan;-24442.50;4939206;29;20186;-79
2022/08/20 03:48:22;;;;;;;8.82;5.50;;;;;;;22.25;nan;-24435.16;4936615;29;20191;-78
2022/08/20 03:50:49;;;;;;;10.27;5.72;;;;;;;22.53;nan;-24442.63;4952916;28;20183;-78
2022/08/20 03:53:15;;;;;;;14.70;6.53;;;;;;;22.98;nan;-24454.94;4938156;29;20187;-77
2022/08/20 03:55:45;;;;;;;13.73;7.43;;;;;;;23.24;nan;-24462.13;4938484;29;20584;-77
2022/08/20 03:58:12;;;;;;;14.07;6.90;;;;;;;23.27;nan;-24462.97;4938628;29;20182;-80
2022/08/20 04:00:45;;;;;;;23.15;6.68;;;;;;;23.96;nan;-24481.72;4938224;29;20226;-77
2022/08/20 04:03:10;;;;;;;17.55;6.43;;;;;;;24.33;nan;-24491.81;4937924;29;20175;-78
2022/08/20 04:05:39;;;;;;;15.02;7.00;;;;;;;24.49;nan;-24496.22;4937922;29;20284;-77
2022/08/20 04:08:10;;;;;;;12.75;6.55;;;;;;;24.93;nan;-24508.22;4938602;29;20266;-77
2022/08/20 04:10:36;;;;;;;18.58;7.30;;;;;;;25.13;nan;-24513.56;4938855;29;20175;-78
2022/08/20 04:13:04;;;;;;;16.33;6.72;;;;;;;25.29;nan;-24518.13;4938553;29;20214;-78
2022/08/20 04:15:31;;;;;;;10.25;5.80;;;;;;;25.74;nan;-24530.22;4938368;29;20230;-78
2022/08/20 04:17:56;;;;;;;12.57;5.72;;;;;;;26.17;nan;-24541.91;4938462;29;20195;-78
2022/08/20 04:20:24;;;;;;;9.30;5.65;;;;;;;26.68;nan;-24555.91;4938588;29;20282;-78
2022/08/20 04:22:52;;;;;;;20.45;7.13;;;;;;;26.87;nan;-24560.88;4953274;29;20237;-78
2022/08/20 04:25:18;;;;;;;16.42;6.28;;;;;;;26.79;nan;-24558.78;4937465;29;20176;-78
2022/08/20 04:27:45;;;;;;;11.55;6.10;;;;;;;26.60;nan;-24553.59;4937255;29;20241;-79
2022/08/20 04:30:13;;;;;;;11.23;6.63;;;;;;;26.40;nan;-24548.09;4938537;29;20638;-78
2022/08/20 04:32:40;;;;;;;9.52;6.05;;;;;;;26.92;nan;-24562.38;4938700;29;20288;-77
2022/08/20 04:35:08;;;;;;;13.70;7.10;;;;;;;26.83;nan;-24559.91;4938771;29;20646;-78
2022/08/20 04:37:33;;;;;;;11.23;6.40;;;;;;;27.16;nan;-24568.94;4938704;29;20202;-78
2022/08/20 04:42:49;;;;;;;8.68;5.88;;;;;;;27.48;nan;-24577.44;4937918;29;20265;-79
2022/08/20 04:45:14;;;;;;;11.82;6.22;;;;;;;26.75;nan;-24557.84;4936582;29;20223;-77
2022/08/20 04:47:40;;;;;;;12.85;6.25;;;;;;;26.91;nan;-24561.97;4952564;29;20167;-78
2022/08/20 04:50:08;;;;;;;9.40;6.30;;;;;;;27.02;nan;-24564.97;4938193;29;20175;-78
2022/08/20 04:52:34;;;;;;;12.48;6.65;;;;;;;26.67;nan;-24555.66;4938076;29;20171;-78
2022/08/20 04:55:00;;;;;;;11.05;6.22;;;;;;;26.65;nan;-24554.97;4937348;29;20587;-78
2022/08/20 04:57:26;;;;;;;13.13;6.22;;;;;;;26.71;nan;-24556.59;4938027;29;20178;-79
2022/08/20 04:59:53;;;;;;;14.23;6.63;;;;;;;26.70;nan;-24556.47;4938049;29;20193;-77
2022/08/20 05:02:19;;;;;;;18.83;6.15;;;;;;;26.92;nan;-24562.22;4936484;29;20270;-78
2022/08/20 05:04:46;;;;;;;11.13;6.15;;;;;;;26.89;nan;-24561.41;4937619;29;20179;-79
2022/08/20 05:07:13;;;;;;;12.45;6.03;;;;;;;26.78;nan;-24558.53;4936733;29;20210;-79
2022/08/20 05:09:39;;;;;;;13.88;6.18;;;;;;;26.57;nan;-24552.91;4938010;29;20677;-78
2022/08/20 05:12:05;;;;;;;12.98;6.45;;;;;;;26.53;nan;-24551.66;4937841;29;20173;-79
2022/08/20 05:14:30;;;;;;;16.17;6.55;;;;;;;26.13;nan;-24540.94;4937498;29;20210;-78
2022/08/20 05:16:58;;;;;;;14.27;6.38;;;;;;;26.26;nan;-24544.53;4936027;29;20231;-78
2022/08/20 05:19:24;;;;;;;11.07;6.20;;;;;;;26.38;nan;-24547.69;4938354;29;20191;-78
2022/08/20 05:21:52;;;;;;;13.25;7.00;;;;;;;26.20;nan;-24542.72;4951849;29;20233;-78
2022/08/20 05:24:18;;;;;;;13.07;6.47;;;;;;;25.93;nan;-24535.44;4937339;29;20183;-77
2022/08/20 05:26:44;;;;;;;13.38;7.20;;;;;;;26.13;nan;-24540.81;4938130;29;20190;-78
2022/08/20 05:29:09;;;;;;;11.85;6.80;;;;;;;25.78;nan;-24531.31;4938350;29;20203;-79
2022/08/20 05:31:37;;;;;;;10.80;6.47;;;;;;;25.40;nan;-24521.16;4956161;29;20186;-78
2022/08/20 05:34:08;;;;;;;16.77;7.38;;;;;;;25.94;nan;-24535.88;4937860;29;20186;-78
2022/08/20 05:36:34;;;;;;;11.35;6.65;;;;;;;25.81;nan;-24532.16;4938197;29;20191;-77
2022/08/20 05:39:00;;;;;;;9.98;6.47;;;;;;;26.19;nan;-24542.59;4938081;29;20174;-78
2022/08/20 05:41:28;;;;;;;10.38;6.80;;;;;;;26.23;nan;-24543.69;4938455;29;20209;-77
2022/08/20 05:43:54;;;;;;;12.63;7.20;;;;;;;26.55;nan;-24552.22;4919832;29;20179;-78
2022/08/20 05:46:19;;;;;;;10.23;6.15;;;;;;;26.44;nan;-24549.19;4952044;29;20274;-78
2022/08/20 05:48:45;;;;;;;13.55;6.32;;;;;;;26.57;nan;-24552.75;4920570;29;20178;-77
2022/08/20 05:51:10;;;;;;;14.43;7.30;;;;;;;26.63;nan;-24554.53;4937361;29;20191;-78
2022/08/20 05:53:36;;;;;;;12.20;6.97;;;;;;;26.61;nan;-24553.84;4938591;29;20174;-77
2022/08/20 05:56:02;;;;;;;12.05;6.63;;;;;;;26.95;nan;-24563.19;4920513;29;20239;-79
2022/08/20 05:58:31;;;;;;;12.48;7.20;;;;;;;27.31;nan;-24572.94;4939460;29;20250;-77
2022/08/20 06:00:58;;;;;;;11.20;6.30;;;;;;;27.29;nan;-24572.25;4940356;29;20232;-77
2022/08/20 06:06:08;;;;;;;11.50;6.78;;;;;;;27.07;nan;-24566.47;4940259;29;20249;-78
2022/08/20 06:08:34;;;;;;;10.55;6.07;;;;;;;26.93;nan;-24562.50;4941559;29;20171;-78
2022/08/20 06:11:00;;;;;;;9.98;6.32;;;;;;;27.12;nan;-24567.72;4941575;29;20181;-80
2022/08/20 06:13:27;;;;;;;11.48;6.28;;;;;;;27.05;nan;-24565.94;4923650;29;20241;-78
2022/08/20 06:15:54;;;;;;;10.00;6.25;;;;;;;26.97;nan;-24563.59;4938971;29;20226;-78
2022/08/20 06:18:19;;;;;;;12.13;6.57;;;;;;;26.88;nan;-24561.28;4922473;29;20187;-78
2022/08/20 06:20:45;;;;;;;9.50;5.90;;;;;;;26.14;nan;-24541.09;4921981;29;20791;-79
2022/08/20 06:23:11;;;;;;;10.25;6.47;;;;;;;26.99;nan;-24564.16;4940697;29;20178;-78
2022/08/20 06:25:38;;;;;;;10.65;6.35;;;;;;;26.53;nan;-24551.81;4941271;29;20373;-78
2022/08/20 06:28:04;;;;;;;10.20;6.47;;;;;;;27.06;nan;-24566.06;4943009;29;20203;-78
2022/08/20 06:30:30;;;;;;;10.10;6.40;;;;;;;27.18;nan;-24569.50;4941581;29;20182;-77
2022/08/20 06:32:57;;;;;;;11.65;6.63;;;;;;;27.74;nan;-24584.59;4939103;29;20615;-78
2022/08/20 06:35:23;;;;;;;8.88;6.20;;;;;;;27.70;nan;-24583.47;4939110;29;20205;-77
2022/08/20 06:37:49;;;;;;;10.50;6.80;;;;;;;27.84;nan;-24587.31;4945553;29;20186;-77
2022/08/20 06:40:18;;;;;;;9.90;6.45;;;;;;;28.08;nan;-24593.75;4924423;29;20206;-77
2022/08/20 06:42:44;;;;;;;18.25;6.85;;;;;;;28.32;nan;-24600.31;4925403;29;20186;-78
2022/08/20 06:45:15;;;;;;;11.55;7.00;;;;;;;28.23;nan;-24597.88;4940464;29;20219;-77
2022/08/20 06:47:42;;;;;;;9.30;6.18;;;;;;;27.97;nan;-24590.75;4941840;29;20179;-77
2022/08/20 06:50:12;;;;;;;9.60;6.22;;;;;;;28.75;nan;-24611.97;4921593;29;20717;-78
2022/08/20 06:52:41;;;;;;;10.07;6.60;;;;;;;28.17;nan;-24596.22;4938302;29;20265;-79
2022/08/20 06:55:09;;;;;;;10.55;6.72;;;;;;;28.69;nan;-24610.31;4919691;29;20296;-77
2022/08/20 06:57:35;;;;;;;11.68;7.10;;;;;;;29.01;nan;-24618.91;4936769;29;20201;-79
2022/08/20 07:00:04;;;;;;;9.65;6.22;;;;;;;29.53;nan;-24633.00;4951387;29;20700;-79
2022/08/20 07:02:29;;;;;;;10.63;6.03;;;;;;;29.45;nan;-24630.81;4936307;29;20225;-77
2022/08/20 07:04:55;;;;;;;10.57;6.47;;;;;;;29.68;nan;-24637.09;4935358;29;20615;-78
2022/08/20 07:07:20;;;;;;;10.48;6.57;;;;;;;29.32;nan;-24627.25;4935951;29;20175;-77
2022/08/20 07:09:45;;;;;;;11.38;6.90;;;;;;;29.31;nan;-24627.00;4935520;29;20166;-79
2022/08/20 07:12:12;;;;;;;11.45;6.82;;;;;;;29.42;nan;-24630.00;4936729;29;20181;-78
2022/08/20 07:14:38;;;;;;;11.45;6.88;;;;;;;29.93;nan;-24643.63;4936528;29;20159;-78
2022/08/20 07:17:04;;;;;;;11.35;7.03;;;;;;;29.91;nan;-24643.09;4936960;29;20557;-78
2022/08/20 07:19:30;;;;;;;12.40;6.78;;;;;;;29.91;nan;-24643.09;4934967;29;20190;-78
2022/08/20 07:21:56;;;;;;;12.20;6.18;;;;;;;29.85;nan;-24641.59;4935168;29;20743;-78
2022/08/20 07:24:21;;;;;;;12.05;7.05;;;;;;;29.55;nan;-24633.53;4941376;29;20531;-78
2022/08/20 07:26:47;;;;;;;11.38;6.93;;;;;;;29.96;nan;-24644.47;4936501;29;20190;-78
2022/08/20 07:29:13;;;;;;;10.98;6.97;;;;;;;30.49;nan;-24658.91;4936320;29;20174;-79
2022/08/20 07:34:22;;;;;;;10.15;6.45;;;;;;;31.11;nan;-24675.53;4936648;29;20181;-79
2022/08/20 07:36:47;;;;;;;10.32;6.68;;;;;;;30.97;nan;-24671.69;4935877;29;20167;-78
2022/08/20 07:39:13;;;;;;;12.25;7.20;;;;;;;31.33;nan;-24681.50;4951008;29;20241;-78
2022/08/20 07:41:39;;;;;;;13.18;7.10;;;;;;;31.57;nan;-24687.91;4934199;29;20269;-79
2022/08/20 07:44:04;;;;;;;11.38;6.80;;;;;;;31.46;nan;-24685.03;4935704;29;20186;-79
2022/08/20 07:46:31;;;;;;;10.75;7.07;;;;;;;31.85;nan;-24695.38;4936094;29;20204;-79
2022/08/20 07:48:56;;;;;;;9.73;6.80;;;;;;;31.73;nan;-24692.25;4935950;29;20257;-78
2022/08/20 07:51:22;;;;;;;11.15;6.78;;;;;;;31.64;nan;-24689.66;4936278;29;20213;-79
2022/08/20 07:53:50;;;;;;;11.77;6.95;;;;;;;31.25;nan;-24679.19;4934255;29;20185;-79
2022/08/20 07:56:19;;;;;;;12.40;7.15;;;;;;;31.16;nan;-24676.88;4934184;29;20182;-78
2022/08/20 07:58:48;;;;;;;9.75;6.40;;;;;;;30.96;nan;-24671.44;4935265;29;20263;-80
2022/08/20 08:01:16;;;;;;;13.07;6.78;;;;;;;30.77;nan;-24666.25;4936561;29;20689;-78
2022/08/20 08:03:42;;;;;;;10.20;7.03;;;;;;;31.27;nan;-24679.72;4935621;29;20209;-79
2022/08/20 08:06:08;;;;;;;12.32;7.18;;;;;;;31.28;nan;-24680.13;4936206;29;20182;-79
2022/08/20 08:08:35;;;;;;;11.27;7.25;;;;;;;31.63;nan;-24689.53;4936363;29;20642;-79
2022/08/20 08:11:02;;;;;;;11.93;6.82;;;;;;;31.98;nan;-24699.03;4936477;29;20174;-77
2022/08/20 08:13:35;;;;;;;11.43;6.80;;;;;;;31.69;nan;-24691.03;4935514;29;20182;-77
2022/08/20 08:16:03;;;;;;;13.15;6.95;;;;;;;31.09;nan;-24674.97;4934123;29;20320;-80
2022/08/20 08:18:38;;;;;;;11.32;7.22;;;;;;;30.73;nan;-24665.16;4936201;29;20217;-77
2022/08/20 08:21:06;;;;;;;9.73;6.40;;;;;;;31.45;nan;-24684.75;4939525;29;20197;-77
2022/08/20 08:23:33;;;;;;;11.90;7.03;;;;;;;31.40;nan;-24683.41;4939470;29;20174;-77
2022/08/20 08:25:59;;;;;;;12.43;6.82;;;;;;;31.79;nan;-24693.75;4937682;29;20568;-77
2022/08/20 08:28:28;;;;;;;10.60;7.05;;;;;;;32.16;nan;-24703.66;4939103;29;20668;-79
2022/08/20 08:30:54;;;;;;;9.73;6.82;;;;;;;32.41;nan;-24710.56;4940872;29;20188;-79
2022/08/20 08:33:29;;;;;;;10.73;6.65;;;;;;;32.16;nan;-24703.78;4941479;29;20174;-77
2022/08/20 08:36:04;;;;;;;10.88;6.38;;;;;;;31.69;nan;-24691.03;4937538;29;20188;-78
2022/08/20 08:38:33;;;;;;;10.55;6.72;;;;;;;31.72;nan;-24691.84;4938873;29;20198;-77
2022/08/20 08:41:12;;;;;;;10.35;6.35;;;;;;;31.87;nan;-24695.91;4940262;29;20752;-78
2022/08/20 08:43:39;;;;;;;9.45;6.57;;;;;;;31.66;nan;-24690.34;4940159;29;20240;-79
2022/08/20 08:46:10;;;;;;;11.27;6.38;;;;;;;31.62;nan;-24689.13;4938393;29;20186;-79
2022/08/20 08:48:45;;;;;;;10.93;6.65;;;;;;;32.11;nan;-24702.44;4940161;29;20205;-80
2022/08/20 08:51:15;;;;;;;9.95;6.50;;;;;;;32.43;nan;-24711.13;4939488;29;20178;-79
2022/08/20 08:53:53;;;;;;;9.23;6.30;;;;;;;32.43;nan;-24711.13;4940637;29;20167;-79
2022/08/20 08:56:22;;;;;;;13.43;6.60;;;;;;;32.22;nan;-24705.28;4939187;29;20237;-79
2022/08/20 08:58:49;;;;;;;11.70;6.30;;;;;;;31.99;nan;-24699.31;4939697;29;20182;-79
2022/08/20 09:01:21;;;;;;;7.47;5.30;;;;;;;32.09;nan;-24701.75;4940174;29;20208;-79
2022/08/20 09:03:50;;;;;;;8.75;5.60;;;;;;;32.56;nan;-24714.38;4941855;29;20178;-78
2022/08/20 09:06:20;;;;;;;9.40;5.93;;;;;;;32.02;nan;-24699.97;4941889;29;20598;-79
2022/08/20 09:08:48;;;;;;;10.63;6.03;;;;;;;31.66;nan;-24690.22;4940377;29;20649;-79
2022/08/20 09:11:15;;;;;;;10.27;6.07;;;;;;;32.00;nan;-24699.56;4954004;29;20537;-79
2022/08/20 09:13:42;;;;;;;10.27;6.20;;;;;;;32.60;nan;-24715.47;4938307;29;20321;-79
2022/08/20 09:16:07;;;;;;;7.03;5.38;;;;;;;32.74;nan;-24719.41;4939059;29;20229;-79
2022/08/20 09:18:33;;;;;;;9.48;6.20;;;;;;;32.71;nan;-24718.44;4953890;28;20178;-79
2022/08/20 09:20:58;;;;;;;9.10;5.95;;;;;;;31.63;nan;-24689.53;4939600;29;20549;-79
2022/08/20 09:23:24;;;;;;;10.02;5.95;;;;;;;31.68;nan;-24690.88;4938781;29;20166;-78
2022/08/20 09:25:49;;;;;;;9.05;5.95;;;;;;;31.87;nan;-24695.91;4937140;29;20269;-78
2022/08/20 09:28:14;;;;;;;10.40;6.22;;;;;;;31.58;nan;-24688.31;4938597;29;20174;-78
2022/08/20 09:30:40;;;;;;;9.10;5.93;;;;;;;32.38;nan;-24709.63;4937798;29;20193;-78
2022/08/20 09:33:05;;;;;;;8.73;5.25;;;;;;;32.77;nan;-24720.22;4938629;29;20170;-78
2022/08/20 09:35:31;;;;;;;7.68;5.40;;;;;;;33.03;nan;-24727.13;4939639;29;20536;-77
2022/08/20 09:37:56;;;;;;;9.85;5.93;;;;;;;33.28;nan;-24733.75;4939134;29;20166;-78
2022/08/20 09:40:22;;;;;;;10.30;6.68;;;;;;;33.43;nan;-24737.84;4939259;29;20596;-78
2022/08/20 09:42:49;;;;;;;10.02;6.05;;;;;;;34.11;nan;-24756.09;4937926;29;20254;-79
2022/08/20 09:45:14;;;;;;;8.45;5.80;;;;;;;34.01;nan;-24753.41;4940713;29;20186;-79
2022/08/20 09:47:40;;;;;;;9.35;5.90;;;;;;;33.70;nan;-24745.16;4940189;29;20244;-78
2022/08/20 09:50:07;;;;;;;9.13;6.10;;;;;;;33.87;nan;-24749.59;4937131;29;20189;-79
2022/08/20 09:52:36;;;;;;;9.48;5.90;;;;;;;34.02;nan;-24753.66;4938822;29;20629;-79
2022/08/20 09:55:16;;;;;;;9.10;5.43;;;;;;;33.77;nan;-24746.75;4937087;29;20179;-79
2022/08/20 09:57:43;;;;;;;8.13;5.35;;;;;;;33.34;nan;-24735.25;4937854;29;20174;-79
2022/08/20 10:00:12;;;;;;;8.52;5.50;;;;;;;33.37;nan;-24736.06;4953443;28;20199;-78
2022/08/20 10:02:38;;;;;;;9.55;5.80;;;;;;;33.90;nan;-24750.28;4955535;29;20204;-77
2022/08/20 10:05:04;;;;;;;8.07;5.75;;;;;;;33.72;nan;-24745.53;4938442;29;20178;-77
2022/08/20 10:07:29;;;;;;;9.73;5.68;;;;;;;33.13;nan;-24729.84;4940288;29;20257;-78
2022/08/20 10:09:55;;;;;;;8.50;5.50;;;;;;;33.07;nan;-24728.22;4944868;29;20174;-78
2022/08/20 10:12:21;;;;;;;9.50;5.90;;;;;;;33.14;nan;-24730.09;4940452;29;20193;-79
2022/08/20 10:14:46;;;;;;;7.90;5.38;;;;;;;33.18;nan;-24731.06;4940832;29;20268;-78
2022/08/20 10:17:12;;;;;;;8.70;5.93;;;;;;;33.67;nan;-24744.31;4939872;29;20218;-80
2022/08/20 10:19:37;;;;;;;8.30;5.53;;;;;;;33.55;nan;-24740.94;4941741;29;20569;-80
2022/08/20 10:22:03;;;;;;;9.13;6.07;;;;;;;33.45;nan;-24738.22;4937478;29;20205;-78
2022/08/20 10:24:29;;;;;;;8.48;5.90;;;;;;;33.26;nan;-24733.34;4922278;29;20178;-78
2022/08/20 10:26:57;;;;;;;8.07;5.43;;;;;;;33.30;nan;-24734.31;4921869;29;20610;-78
2022/08/20 10:29:24;;;;;;;8.75;5.65;;;;;;;33.24;nan;-24732.81;4923179;29;20186;-78
2022/08/20 10:31:50;;;;;;;8.73;5.60;;;;;;;33.39;nan;-24736.75;4938167;29;20233;-79
2022/08/20 10:34:15;;;;;;;10.20;6.07;;;;;;;33.61;nan;-24742.69;4920147;29;20182;-79
2022/08/20 10:36:42;;;;;;;8.23;5.78;;;;;;;33.63;nan;-24743.09;4939688;29;20705;-80
2022/08/20 10:39:07;;;;;;;8.02;5.72;;;;;;;33.89;nan;-24750.16;4942065;29;20205;-79
2022/08/20 10:41:33;;;;;;;10.25;6.10;;;;;;;33.48;nan;-24739.06;4938845;29;20202;-79
2022/08/20 10:43:58;;;;;;;10.95;6.32;;;;;;;33.56;nan;-24741.22;4939000;29;20181;-80
2022/08/20 10:46:24;;;;;;;9.38;6.03;;;;;;;33.62;nan;-24742.84;4939947;29;20174;-80
2022/08/20 10:48:49;;;;;;;9.38;5.93;;;;;;;33.66;nan;-24744.06;4939712;29;20178;-80
2022/08/20 10:51:15;;;;;;;8.68;5.72;;;;;;;33.76;nan;-24746.63;4922354;29;20256;-77
2022/08/20 10:53:40;;;;;;;10.27;6.05;;;;;;;33.67;nan;-24744.31;4940369;29;20201;-78
2022/08/20 10:56:06;;;;;;;8.60;5.90;;;;;;;33.91;nan;-24750.69;4940831;29;20170;-78
2022/08/20 10:58:31;;;;;;;7.90;5.40;;;;;;;34.15;nan;-24757.03;4940353;29;20250;-79
2022/08/20 11:00:57;;;;;;;8.85;5.43;;;;;;;34.06;nan;-24754.75;4937649;29;20210;-80
2022/08/20 11:03:22;;;;;;;8.77;5.70;;;;;;;34.31;nan;-24761.25;4938659;29;20197;-79
2022/08/20 11:05:48;;;;;;;7.47;5.03;;;;;;;34.41;nan;-24763.94;4921219;29;20261;-79
2022/08/20 11:08:14;;;;;;;6.95;5.13;;;;;;;34.17;nan;-24757.72;4937244;29;20186;-79
2022/08/20 11:10:40;;;;;;;7.13;4.93;;;;;;;34.47;nan;-24765.56;4937941;29;20174;-78
2022/08/20 11:13:07;;;;;;;5.53;4.07;;;;;;;34.52;nan;-24767.03;4937990;29;20182;-77
2022/08/20 11:15:35;;;;;;;6.10;4.55;;;;;;;34.51;nan;-24766.63;4920292;29;20630;-77
2022/08/20 11:18:01;;;;;;;6.22;4.38;;;;;;;34.78;nan;-24773.94;4920486;29;20170;-77
2022/08/20 11:20:26;;;;;;;6.28;4.40;;;;;;;34.53;nan;-24767.19;4937196;29;20224;-78
2022/08/20 11:22:53;;;;;;;8.48;5.15;;;;;;;34.65;nan;-24770.41;4937341;29;20188;-78
2022/08/20 11:25:19;;;;;;;8.20;4.78;;;;;;;34.79;nan;-24774.22;4937417;29;20240;-79
2022/08/20 11:27:47;;;;;;;7.63;4.68;;;;;;;34.66;nan;-24770.69;4920455;29;20182;-79
2022/08/20 11:30:23;;;;;;;7.05;4.82;;;;;;;34.65;nan;-24770.28;4921030;29;20174;-80
2022/08/20 11:32:49;;;;;;;6.45;4.53;;;;;;;34.14;nan;-24756.91;4937281;29;20182;-79
2022/08/20 11:35:14;;;;;;;6.63;4.43;;;;;;;34.68;nan;-24771.09;4921491;29;20184;-80
2022/08/20 11:37:40;;;;;;;6.55;4.60;;;;;;;34.69;nan;-24771.50;4939424;29;20182;-78
2022/08/20 11:40:07;;;;;;;6.28;4.47;;;;;;;34.77;nan;-24773.66;4921729;29;20276;-78
2022/08/20 11:42:33;;;;;;;6.93;4.22;;;;;;;34.80;nan;-24774.34;4937655;29;20170;-78
2022/08/20 11:44:59;;;;;;;8.13;4.63;;;;;;;34.67;nan;-24770.84;4920740;29;20241;-79
2022/08/20 11:47:28;;;;;;;7.65;5.00;;;;;;;34.60;nan;-24769.22;4937148;29;20605;-80